aviador You're here:

K96D Decoded Metar

in
Report Time2018-05-21 18:15:00
UTC Time2018-05-21 18:16:48
Flight Rules vfr VFR
Wind150° at 14 kt
W.Rank150° ranks 7
Current wind is above 150° avg. (9.2)
Visibility9999 m
Phenomena:N/A
Clouds:N/A
Expected CloudBase > 8,400 ft AGL from Temp-Dew spread
CeilingNone
Temp23°C
Dew Point02°C (25% RH)
AAT16.3°C
QNH1016 hPa
Raw Report
K96D 211815Z AUTO 15014KT 10SM CLR 23/02 A2999 RMK AO2=

Extra information for K96D:More info

Social comments